sensor_id;sensor_type;location;lat;lon;timestamp;P1;durP1;ratioP1;P2;durP2;ratioP2
14056;SDS011;7103;54.300;10.180;2023-06-22T00:01:19;0.20;;;0.20;;
14056;SDS011;7103;54.300;10.180;2023-06-22T00:03:49;0.30;;;0.30;;
14056;SDS011;7103;54.300;10.180;2023-06-22T00:06:16;0.30;;;0.30;;
14056;SDS011;7103;54.300;10.180;2023-06-22T00:08:43;0.30;;;0.30;;
14056;SDS011;7103;54.300;10.180;2023-06-22T00:11:10;0.30;;;0.30;;
14056;SDS011;7103;54.300;10.180;2023-06-22T00:13:37;0.20;;;0.20;;
14056;SDS011;7103;54.300;10.180;2023-06-22T00:16:05;0.20;;;0.20;;
14056;SDS011;7103;54.300;10.180;2023-06-22T00:18:32;0.20;;;0.20;;
14056;SDS011;7103;54.300;10.180;2023-06-22T00:20:59;0.20;;;0.20;;
14056;SDS011;7103;54.300;10.180;2023-06-22T00:23:26;0.30;;;0.30;;
14056;SDS011;7103;54.300;10.180;2023-06-22T00:25:53;0.30;;;0.30;;
14056;SDS011;7103;54.300;10.180;2023-06-22T00:28:20;0.30;;;0.30;;
14056;SDS011;7103;54.300;10.180;2023-06-22T00:30:48;0.30;;;0.30;;
14056;SDS011;7103;54.300;10.180;2023-06-22T00:33:16;0.30;;;0.30;;
14056;SDS011;7103;54.300;10.180;2023-06-22T00:35:43;0.30;;;0.30;;
14056;SDS011;7103;54.300;10.180;2023-06-22T00:38:10;0.20;;;0.20;;
14056;SDS011;7103;54.300;10.180;2023-06-22T00:40:38;0.20;;;0.20;;
14056;SDS011;7103;54.300;10.180;2023-06-22T00:43:05;0.30;;;0.30;;
14056;SDS011;7103;54.300;10.180;2023-06-22T00:45:32;0.30;;;0.30;;
14056;SDS011;7103;54.300;10.180;2023-06-22T00:48:00;0.20;;;0.20;;
14056;SDS011;7103;54.300;10.180;2023-06-22T00:50:29;0.30;;;0.30;;
14056;SDS011;7103;54.300;10.180;2023-06-22T00:53:01;0.30;;;0.30;;
14056;SDS011;7103;54.300;10.180;2023-06-22T00:55:36;0.30;;;0.30;;
14056;SDS011;7103;54.300;10.180;2023-06-22T00:58:10;0.30;;;0.30;;
14056;SDS011;7103;54.300;10.180;2023-06-22T01:00:38;0.30;;;0.30;;
14056;SDS011;7103;54.300;10.180;2023-06-22T01:03:07;0.30;;;0.30;;
14056;SDS011;7103;54.300;10.180;2023-06-22T01:05:36;0.27;;;0.27;;
14056;SDS011;7103;54.300;10.180;2023-06-22T01:08:06;0.30;;;0.30;;
14056;SDS011;7103;54.300;10.180;2023-06-22T01:11:07;0.30;;;0.30;;
14056;SDS011;7103;54.300;10.180;2023-06-22T01:13:50;0.27;;;0.27;;
14056;SDS011;7103;54.300;10.180;2023-06-22T01:16:25;0.27;;;0.27;;
14056;SDS011;7103;54.300;10.180;2023-06-22T01:18:55;0.30;;;0.30;;
14056;SDS011;7103;54.300;10.180;2023-06-22T01:21:24;0.30;;;0.30;;
14056;SDS011;7103;54.300;10.180;2023-06-22T01:29:34;0.20;;;0.20;;
14056;SDS011;7103;54.300;10.180;2023-06-22T01:32:03;0.30;;;0.30;;
14056;SDS011;7103;54.300;10.180;2023-06-22T01:34:35;0.40;;;0.40;;
14056;SDS011;7103;54.300;10.180;2023-06-22T01:37:03;0.30;;;0.30;;
14056;SDS011;7103;54.300;10.180;2023-06-22T01:39:31;0.20;;;0.20;;
14056;SDS011;7103;54.300;10.180;2023-06-22T01:41:58;0.20;;;0.20;;
14056;SDS011;7103;54.300;10.180;2023-06-22T01:44:26;0.30;;;0.30;;
14056;SDS011;7103;54.300;10.180;2023-06-22T01:46:53;0.30;;;0.30;;
14056;SDS011;7103;54.300;10.180;2023-06-22T01:49:21;0.30;;;0.30;;
14056;SDS011;7103;54.300;10.180;2023-06-22T01:51:48;0.40;;;0.40;;
14056;SDS011;7103;54.300;10.180;2023-06-22T01:54:16;0.20;;;0.20;;
14056;SDS011;7103;54.300;10.180;2023-06-22T01:56:42;0.40;;;0.40;;
14056;SDS011;7103;54.300;10.180;2023-06-22T02:02:04;0.20;;;0.20;;
14056;SDS011;7103;54.300;10.180;2023-06-22T02:04:35;0.30;;;0.30;;
14056;SDS011;7103;54.300;10.180;2023-06-22T02:07:09;0.30;;;0.30;;
14056;SDS011;7103;54.300;10.180;2023-06-22T02:09:40;0.40;;;0.40;;
14056;SDS011;7103;54.300;10.180;2023-06-22T02:12:11;0.30;;;0.30;;
14056;SDS011;7103;54.300;10.180;2023-06-22T02:14:40;0.40;;;0.40;;
14056;SDS011;7103;54.300;10.180;2023-06-22T02:17:08;0.30;;;0.30;;
14056;SDS011;7103;54.300;10.180;2023-06-22T02:19:36;0.30;;;0.30;;
14056;SDS011;7103;54.300;10.180;2023-06-22T02:22:03;0.40;;;0.40;;
14056;SDS011;7103;54.300;10.180;2023-06-22T02:24:31;0.30;;;0.30;;
14056;SDS011;7103;54.300;10.180;2023-06-22T02:27:00;0.30;;;0.30;;
14056;SDS011;7103;54.300;10.180;2023-06-22T02:29:27;0.27;;;0.27;;
14056;SDS011;7103;54.300;10.180;2023-06-22T02:31:55;0.20;;;0.20;;
14056;SDS011;7103;54.300;10.180;2023-06-22T02:34:22;0.33;;;0.33;;
14056;SDS011;7103;54.300;10.180;2023-06-22T02:36:49;0.20;;;0.20;;
14056;SDS011;7103;54.300;10.180;2023-06-22T02:39:22;0.20;;;0.20;;
14056;SDS011;7103;54.300;10.180;2023-06-22T02:41:53;0.30;;;0.30;;
14056;SDS011;7103;54.300;10.180;2023-06-22T02:44:21;0.20;;;0.20;;
14056;SDS011;7103;54.300;10.180;2023-06-22T02:46:48;0.30;;;0.30;;
14056;SDS011;7103;54.300;10.180;2023-06-22T02:49:15;0.30;;;0.30;;
14056;SDS011;7103;54.300;10.180;2023-06-22T02:51:44;0.30;;;0.30;;
14056;SDS011;7103;54.300;10.180;2023-06-22T02:54:13;0.30;;;0.30;;
14056;SDS011;7103;54.300;10.180;2023-06-22T02:56:40;0.20;;;0.20;;
14056;SDS011;7103;54.300;10.180;2023-06-22T02:59:07;0.30;;;0.30;;
14056;SDS011;7103;54.300;10.180;2023-06-22T03:01:34;0.20;;;0.20;;
14056;SDS011;7103;54.300;10.180;2023-06-22T03:04:07;0.30;;;0.30;;
14056;SDS011;7103;54.300;10.180;2023-06-22T03:06:35;0.30;;;0.30;;
14056;SDS011;7103;54.300;10.180;2023-06-22T03:09:03;0.40;;;0.40;;
14056;SDS011;7103;54.300;10.180;2023-06-22T03:11:32;0.30;;;0.30;;
14056;SDS011;7103;54.300;10.180;2023-06-22T03:14:00;0.30;;;0.30;;
14056;SDS011;7103;54.300;10.180;2023-06-22T03:16:27;0.20;;;0.20;;
14056;SDS011;7103;54.300;10.180;2023-06-22T03:18:55;0.30;;;0.30;;
14056;SDS011;7103;54.300;10.180;2023-06-22T03:21:22;0.37;;;0.37;;
14056;SDS011;7103;54.300;10.180;2023-06-22T03:23:50;0.30;;;0.30;;
14056;SDS011;7103;54.300;10.180;2023-06-22T03:26:17;0.20;;;0.20;;
14056;SDS011;7103;54.300;10.180;2023-06-22T03:28:45;0.30;;;0.30;;
14056;SDS011;7103;54.300;10.180;2023-06-22T03:31:12;0.30;;;0.30;;
14056;SDS011;7103;54.300;10.180;2023-06-22T03:33:39;0.30;;;0.30;;
14056;SDS011;7103;54.300;10.180;2023-06-22T03:36:06;0.30;;;0.30;;
14056;SDS011;7103;54.300;10.180;2023-06-22T03:38:33;0.40;;;0.40;;
14056;SDS011;7103;54.300;10.180;2023-06-22T03:41:00;0.30;;;0.30;;
14056;SDS011;7103;54.300;10.180;2023-06-22T03:43:27;0.40;;;0.40;;
14056;SDS011;7103;54.300;10.180;2023-06-22T03:45:54;0.30;;;0.30;;
14056;SDS011;7103;54.300;10.180;2023-06-22T03:48:21;0.30;;;0.30;;
14056;SDS011;7103;54.300;10.180;2023-06-22T03:50:48;0.30;;;0.30;;
14056;SDS011;7103;54.300;10.180;2023-06-22T03:53:15;0.30;;;0.30;;
14056;SDS011;7103;54.300;10.180;2023-06-22T03:55:48;0.30;;;0.30;;
14056;SDS011;7103;54.300;10.180;2023-06-22T03:58:19;0.20;;;0.20;;
14056;SDS011;7103;54.300;10.180;2023-06-22T04:00:51;0.30;;;0.30;;
14056;SDS011;7103;54.300;10.180;2023-06-22T04:03:19;0.30;;;0.30;;
14056;SDS011;7103;54.300;10.180;2023-06-22T04:05:46;0.30;;;0.30;;
14056;SDS011;7103;54.300;10.180;2023-06-22T04:08:14;0.40;;;0.40;;
14056;SDS011;7103;54.300;10.180;2023-06-22T04:10:41;0.40;;;0.40;;
14056;SDS011;7103;54.300;10.180;2023-06-22T04:13:08;0.40;;;0.40;;
14056;SDS011;7103;54.300;10.180;2023-06-22T04:15:35;0.23;;;0.23;;
14056;SDS011;7103;54.300;10.180;2023-06-22T04:18:02;0.27;;;0.27;;
14056;SDS011;7103;54.300;10.180;2023-06-22T04:20:30;0.30;;;0.30;;
14056;SDS011;7103;54.300;10.180;2023-06-22T04:22:58;0.40;;;0.40;;
14056;SDS011;7103;54.300;10.180;2023-06-22T04:25:25;0.30;;;0.30;;
14056;SDS011;7103;54.300;10.180;2023-06-22T04:27:52;0.30;;;0.30;;
14056;SDS011;7103;54.300;10.180;2023-06-22T04:30:19;0.30;;;0.30;;
14056;SDS011;7103;54.300;10.180;2023-06-22T04:32:46;0.30;;;0.30;;
14056;SDS011;7103;54.300;10.180;2023-06-22T04:35:25;0.30;;;0.30;;
14056;SDS011;7103;54.300;10.180;2023-06-22T04:37:53;0.30;;;0.30;;
14056;SDS011;7103;54.300;10.180;2023-06-22T04:40:22;0.40;;;0.40;;
14056;SDS011;7103;54.300;10.180;2023-06-22T04:42:49;0.40;;;0.40;;
14056;SDS011;7103;54.300;10.180;2023-06-22T04:45:20;0.30;;;0.30;;
14056;SDS011;7103;54.300;10.180;2023-06-22T04:47:47;0.30;;;0.30;;
14056;SDS011;7103;54.300;10.180;2023-06-22T04:50:14;0.23;;;0.23;;
14056;SDS011;7103;54.300;10.180;2023-06-22T04:52:41;0.30;;;0.30;;
14056;SDS011;7103;54.300;10.180;2023-06-22T04:55:08;0.30;;;0.30;;
14056;SDS011;7103;54.300;10.180;2023-06-22T04:57:35;0.40;;;0.40;;
14056;SDS011;7103;54.300;10.180;2023-06-22T05:00:05;0.40;;;0.40;;
14056;SDS011;7103;54.300;10.180;2023-06-22T05:02:39;0.30;;;0.30;;
14056;SDS011;7103;54.300;10.180;2023-06-22T05:05:07;0.30;;;0.30;;
14056;SDS011;7103;54.300;10.180;2023-06-22T05:07:35;0.30;;;0.30;;
14056;SDS011;7103;54.300;10.180;2023-06-22T05:10:02;0.30;;;0.30;;
14056;SDS011;7103;54.300;10.180;2023-06-22T05:12:30;0.30;;;0.30;;
14056;SDS011;7103;54.300;10.180;2023-06-22T05:14:57;0.30;;;0.30;;
14056;SDS011;7103;54.300;10.180;2023-06-22T05:17:24;0.30;;;0.30;;
14056;SDS011;7103;54.300;10.180;2023-06-22T05:19:51;0.30;;;0.30;;
14056;SDS011;7103;54.300;10.180;2023-06-22T05:22:19;0.40;;;0.40;;
14056;SDS011;7103;54.300;10.180;2023-06-22T05:24:46;0.30;;;0.30;;
14056;SDS011;7103;54.300;10.180;2023-06-22T05:27:30;0.30;;;0.30;;
14056;SDS011;7103;54.300;10.180;2023-06-22T05:30:14;0.30;;;0.30;;
14056;SDS011;7103;54.300;10.180;2023-06-22T05:33:00;0.30;;;0.30;;
14056;SDS011;7103;54.300;10.180;2023-06-22T05:35:39;0.30;;;0.30;;
14056;SDS011;7103;54.300;10.180;2023-06-22T05:38:05;0.30;;;0.30;;
14056;SDS011;7103;54.300;10.180;2023-06-22T05:40:32;0.30;;;0.30;;
14056;SDS011;7103;54.300;10.180;2023-06-22T05:42:59;0.30;;;0.30;;
14056;SDS011;7103;54.300;10.180;2023-06-22T05:45:28;0.30;;;0.30;;
14056;SDS011;7103;54.300;10.180;2023-06-22T05:47:55;0.30;;;0.30;;
14056;SDS011;7103;54.300;10.180;2023-06-22T05:50:22;0.30;;;0.30;;
14056;SDS011;7103;54.300;10.180;2023-06-22T05:52:49;0.30;;;0.30;;
14056;SDS011;7103;54.300;10.180;2023-06-22T05:55:15;0.30;;;0.30;;
14056;SDS011;7103;54.300;10.180;2023-06-22T05:57:45;0.30;;;0.30;;
14056;SDS011;7103;54.300;10.180;2023-06-22T06:00:12;0.30;;;0.30;;
14056;SDS011;7103;54.300;10.180;2023-06-22T06:02:39;0.30;;;0.30;;
14056;SDS011;7103;54.300;10.180;2023-06-22T06:05:13;0.30;;;0.30;;
14056;SDS011;7103;54.300;10.180;2023-06-22T06:07:41;0.30;;;0.30;;
14056;SDS011;7103;54.300;10.180;2023-06-22T06:10:11;0.30;;;0.30;;
14056;SDS011;7103;54.300;10.180;2023-06-22T06:12:38;0.30;;;0.30;;
14056;SDS011;7103;54.300;10.180;2023-06-22T06:15:05;0.30;;;0.30;;
14056;SDS011;7103;54.300;10.180;2023-06-22T06:17:44;0.30;;;0.30;;
14056;SDS011;7103;54.300;10.180;2023-06-22T06:20:22;0.30;;;0.30;;
14056;SDS011;7103;54.300;10.180;2023-06-22T06:22:51;0.30;;;0.30;;
14056;SDS011;7103;54.300;10.180;2023-06-22T06:25:18;0.30;;;0.30;;
14056;SDS011;7103;54.300;10.180;2023-06-22T06:27:48;0.30;;;0.30;;
14056;SDS011;7103;54.300;10.180;2023-06-22T06:30:17;0.40;;;0.40;;
14056;SDS011;7103;54.300;10.180;2023-06-22T06:32:46;0.30;;;0.30;;
14056;SDS011;7103;54.300;10.180;2023-06-22T06:35:13;0.30;;;0.30;;
14056;SDS011;7103;54.300;10.180;2023-06-22T06:37:44;0.30;;;0.30;;
14056;SDS011;7103;54.300;10.180;2023-06-22T06:40:14;0.30;;;0.30;;
14056;SDS011;7103;54.300;10.180;2023-06-22T06:42:45;0.30;;;0.30;;
14056;SDS011;7103;54.300;10.180;2023-06-22T06:45:17;0.30;;;0.30;;
14056;SDS011;7103;54.300;10.180;2023-06-22T06:47:45;0.30;;;0.30;;
14056;SDS011;7103;54.300;10.180;2023-06-22T06:50:13;0.30;;;0.30;;
14056;SDS011;7103;54.300;10.180;2023-06-22T06:52:40;0.30;;;0.30;;
14056;SDS011;7103;54.300;10.180;2023-06-22T06:55:08;0.20;;;0.20;;
14056;SDS011;7103;54.300;10.180;2023-06-22T06:57:39;0.30;;;0.30;;
14056;SDS011;7103;54.300;10.180;2023-06-22T07:00:06;0.30;;;0.30;;
14056;SDS011;7103;54.300;10.180;2023-06-22T07:02:41;0.30;;;0.30;;
14056;SDS011;7103;54.300;10.180;2023-06-22T07:05:09;0.30;;;0.30;;
14056;SDS011;7103;54.300;10.180;2023-06-22T07:07:38;0.30;;;0.30;;
14056;SDS011;7103;54.300;10.180;2023-06-22T07:10:05;0.30;;;0.30;;
14056;SDS011;7103;54.300;10.180;2023-06-22T07:12:33;0.40;;;0.40;;
14056;SDS011;7103;54.300;10.180;2023-06-22T07:15:03;0.40;;;0.40;;
14056;SDS011;7103;54.300;10.180;2023-06-22T07:17:34;0.30;;;0.30;;
14056;SDS011;7103;54.300;10.180;2023-06-22T07:20:02;0.40;;;0.40;;
14056;SDS011;7103;54.300;10.180;2023-06-22T07:22:37;0.30;;;0.30;;
14056;SDS011;7103;54.300;10.180;2023-06-22T07:25:05;0.30;;;0.30;;
14056;SDS011;7103;54.300;10.180;2023-06-22T07:27:38;0.40;;;0.40;;
14056;SDS011;7103;54.300;10.180;2023-06-22T07:30:10;0.30;;;0.30;;
14056;SDS011;7103;54.300;10.180;2023-06-22T07:32:37;0.30;;;0.30;;
14056;SDS011;7103;54.300;10.180;2023-06-22T07:35:04;0.30;;;0.30;;
14056;SDS011;7103;54.300;10.180;2023-06-22T07:37:32;0.32;;;0.32;;
14056;SDS011;7103;54.300;10.180;2023-06-22T07:40:01;0.40;;;0.40;;
14056;SDS011;7103;54.300;10.180;2023-06-22T07:42:32;0.40;;;0.40;;
14056;SDS011;7103;54.300;10.180;2023-06-22T07:44:59;0.40;;;0.40;;
14056;SDS011;7103;54.300;10.180;2023-06-22T07:47:28;0.30;;;0.30;;
14056;SDS011;7103;54.300;10.180;2023-06-22T07:49:58;0.40;;;0.40;;
14056;SDS011;7103;54.300;10.180;2023-06-22T07:52:28;0.40;;;0.40;;
14056;SDS011;7103;54.300;10.180;2023-06-22T07:54:55;0.40;;;0.40;;
14056;SDS011;7103;54.300;10.180;2023-06-22T07:57:22;0.30;;;0.30;;
14056;SDS011;7103;54.300;10.180;2023-06-22T07:59:49;0.40;;;0.40;;
14056;SDS011;7103;54.300;10.180;2023-06-22T08:02:16;0.40;;;0.40;;
14056;SDS011;7103;54.300;10.180;2023-06-22T08:04:43;0.45;;;0.45;;
14056;SDS011;7103;54.300;10.180;2023-06-22T08:07:10;0.40;;;0.40;;
14056;SDS011;7103;54.300;10.180;2023-06-22T08:09:38;0.40;;;0.40;;
14056;SDS011;7103;54.300;10.180;2023-06-22T08:12:05;0.40;;;0.40;;
14056;SDS011;7103;54.300;10.180;2023-06-22T08:14:32;0.40;;;0.40;;
14056;SDS011;7103;54.300;10.180;2023-06-22T08:17:02;0.50;;;0.50;;
14056;SDS011;7103;54.300;10.180;2023-06-22T08:19:29;0.50;;;0.50;;
14056;SDS011;7103;54.300;10.180;2023-06-22T08:21:56;0.40;;;0.40;;
14056;SDS011;7103;54.300;10.180;2023-06-22T08:24:24;0.40;;;0.40;;
14056;SDS011;7103;54.300;10.180;2023-06-22T08:26:51;0.40;;;0.40;;
14056;SDS011;7103;54.300;10.180;2023-06-22T08:29:18;0.40;;;0.40;;
14056;SDS011;7103;54.300;10.180;2023-06-22T08:31:46;0.40;;;0.40;;
14056;SDS011;7103;54.300;10.180;2023-06-22T08:34:12;0.40;;;0.40;;
14056;SDS011;7103;54.300;10.180;2023-06-22T08:36:43;0.40;;;0.40;;
14056;SDS011;7103;54.300;10.180;2023-06-22T08:39:19;0.30;;;0.30;;
14056;SDS011;7103;54.300;10.180;2023-06-22T08:41:47;0.40;;;0.40;;
14056;SDS011;7103;54.300;10.180;2023-06-22T08:44:16;0.40;;;0.40;;
14056;SDS011;7103;54.300;10.180;2023-06-22T08:46:45;0.40;;;0.40;;
14056;SDS011;7103;54.300;10.180;2023-06-22T08:49:12;0.40;;;0.40;;
14056;SDS011;7103;54.300;10.180;2023-06-22T08:51:39;0.35;;;0.35;;
14056;SDS011;7103;54.300;10.180;2023-06-22T08:54:06;0.40;;;0.40;;
14056;SDS011;7103;54.300;10.180;2023-06-22T08:56:33;0.40;;;0.40;;
14056;SDS011;7103;54.300;10.180;2023-06-22T08:59:00;0.40;;;0.40;;
14056;SDS011;7103;54.300;10.180;2023-06-22T09:01:27;0.40;;;0.40;;
14056;SDS011;7103;54.300;10.180;2023-06-22T09:03:54;0.40;;;0.40;;
14056;SDS011;7103;54.300;10.180;2023-06-22T09:06:22;0.40;;;0.40;;
14056;SDS011;7103;54.300;10.180;2023-06-22T09:08:49;0.40;;;0.40;;
14056;SDS011;7103;54.300;10.180;2023-06-22T09:11:16;0.40;;;0.40;;
14056;SDS011;7103;54.300;10.180;2023-06-22T09:13:43;0.40;;;0.40;;
14056;SDS011;7103;54.300;10.180;2023-06-22T09:16:10;0.40;;;0.40;;
14056;SDS011;7103;54.300;10.180;2023-06-22T09:18:38;0.40;;;0.40;;
14056;SDS011;7103;54.300;10.180;2023-06-22T09:21:05;0.40;;;0.40;;
14056;SDS011;7103;54.300;10.180;2023-06-22T09:23:32;0.40;;;0.40;;
14056;SDS011;7103;54.300;10.180;2023-06-22T09:25:59;0.40;;;0.40;;
14056;SDS011;7103;54.300;10.180;2023-06-22T09:28:26;0.40;;;0.40;;
14056;SDS011;7103;54.300;10.180;2023-06-22T09:30:53;0.40;;;0.40;;
14056;SDS011;7103;54.300;10.180;2023-06-22T09:33:25;0.50;;;0.50;;
14056;SDS011;7103;54.300;10.180;2023-06-22T09:35:52;0.50;;;0.50;;
14056;SDS011;7103;54.300;10.180;2023-06-22T09:38:19;0.50;;;0.50;;
14056;SDS011;7103;54.300;10.180;2023-06-22T09:40:46;0.40;;;0.40;;
14056;SDS011;7103;54.300;10.180;2023-06-22T09:43:13;0.40;;;0.40;;
14056;SDS011;7103;54.300;10.180;2023-06-22T09:45:40;0.40;;;0.40;;
14056;SDS011;7103;54.300;10.180;2023-06-22T09:48:08;0.40;;;0.40;;
14056;SDS011;7103;54.300;10.180;2023-06-22T09:50:39;0.40;;;0.40;;
14056;SDS011;7103;54.300;10.180;2023-06-22T09:53:06;0.40;;;0.40;;
14056;SDS011;7103;54.300;10.180;2023-06-22T09:55:33;0.40;;;0.40;;
14056;SDS011;7103;54.300;10.180;2023-06-22T09:58:00;0.40;;;0.40;;
14056;SDS011;7103;54.300;10.180;2023-06-22T10:00:27;0.40;;;0.40;;
14056;SDS011;7103;54.300;10.180;2023-06-22T10:02:54;0.43;;;0.43;;
14056;SDS011;7103;54.300;10.180;2023-06-22T10:05:26;0.50;;;0.50;;
14056;SDS011;7103;54.300;10.180;2023-06-22T10:07:53;0.40;;;0.40;;
14056;SDS011;7103;54.300;10.180;2023-06-22T10:10:20;0.40;;;0.40;;
14056;SDS011;7103;54.300;10.180;2023-06-22T10:12:54;0.40;;;0.40;;
14056;SDS011;7103;54.300;10.180;2023-06-22T10:15:22;0.50;;;0.50;;
14056;SDS011;7103;54.300;10.180;2023-06-22T10:17:49;0.40;;;0.40;;
14056;SDS011;7103;54.300;10.180;2023-06-22T10:20:16;0.40;;;0.40;;
14056;SDS011;7103;54.300;10.180;2023-06-22T10:22:45;0.40;;;0.40;;
14056;SDS011;7103;54.300;10.180;2023-06-22T10:25:12;0.40;;;0.40;;
14056;SDS011;7103;54.300;10.180;2023-06-22T10:27:40;0.40;;;0.40;;
14056;SDS011;7103;54.300;10.180;2023-06-22T10:30:11;0.40;;;0.40;;
14056;SDS011;7103;54.300;10.180;2023-06-22T10:32:41;0.40;;;0.40;;
14056;SDS011;7103;54.300;10.180;2023-06-22T10:35:09;0.40;;;0.40;;
14056;SDS011;7103;54.300;10.180;2023-06-22T10:37:43;0.40;;;0.40;;
14056;SDS011;7103;54.300;10.180;2023-06-22T10:40:12;0.40;;;0.40;;
14056;SDS011;7103;54.300;10.180;2023-06-22T10:42:39;0.40;;;0.40;;
14056;SDS011;7103;54.300;10.180;2023-06-22T10:45:07;0.40;;;0.40;;
14056;SDS011;7103;54.300;10.180;2023-06-22T10:47:35;0.40;;;0.40;;
14056;SDS011;7103;54.300;10.180;2023-06-22T10:50:02;0.40;;;0.40;;
14056;SDS011;7103;54.300;10.180;2023-06-22T10:52:30;0.40;;;0.40;;
14056;SDS011;7103;54.300;10.180;2023-06-22T10:54:57;0.40;;;0.40;;
14056;SDS011;7103;54.300;10.180;2023-06-22T10:57:24;0.50;;;0.50;;
14056;SDS011;7103;54.300;10.180;2023-06-22T10:59:51;0.45;;;0.45;;
14056;SDS011;7103;54.300;10.180;2023-06-22T11:02:18;0.40;;;0.40;;
14056;SDS011;7103;54.300;10.180;2023-06-22T11:04:45;0.40;;;0.40;;
14056;SDS011;7103;54.300;10.180;2023-06-22T11:07:15;0.40;;;0.40;;
14056;SDS011;7103;54.300;10.180;2023-06-22T11:09:43;0.40;;;0.40;;
14056;SDS011;7103;54.300;10.180;2023-06-22T11:12:10;0.40;;;0.40;;
14056;SDS011;7103;54.300;10.180;2023-06-22T11:14:38;0.40;;;0.40;;
14056;SDS011;7103;54.300;10.180;2023-06-22T11:17:05;0.45;;;0.45;;
14056;SDS011;7103;54.300;10.180;2023-06-22T11:19:32;0.50;;;0.50;;
14056;SDS011;7103;54.300;10.180;2023-06-22T11:21:59;0.40;;;0.40;;
14056;SDS011;7103;54.300;10.180;2023-06-22T11:24:26;0.40;;;0.40;;
14056;SDS011;7103;54.300;10.180;2023-06-22T11:26:53;0.40;;;0.40;;
14056;SDS011;7103;54.300;10.180;2023-06-22T11:29:20;0.43;;;0.43;;
14056;SDS011;7103;54.300;10.180;2023-06-22T11:32:02;0.43;;;0.43;;
14056;SDS011;7103;54.300;10.180;2023-06-22T11:34:29;0.50;;;0.50;;
14056;SDS011;7103;54.300;10.180;2023-06-22T11:36:56;0.40;;;0.40;;
14056;SDS011;7103;54.300;10.180;2023-06-22T11:39:23;0.40;;;0.40;;
14056;SDS011;7103;54.300;10.180;2023-06-22T11:42:06;0.45;;;0.45;;
14056;SDS011;7103;54.300;10.180;2023-06-22T11:44:34;0.40;;;0.40;;
14056;SDS011;7103;54.300;10.180;2023-06-22T11:47:01;0.40;;;0.40;;
14056;SDS011;7103;54.300;10.180;2023-06-22T11:49:30;0.40;;;0.40;;
14056;SDS011;7103;54.300;10.180;2023-06-22T11:51:57;0.40;;;0.40;;
14056;SDS011;7103;54.300;10.180;2023-06-22T11:54:24;0.40;;;0.40;;
14056;SDS011;7103;54.300;10.180;2023-06-22T11:56:51;0.40;;;0.40;;
14056;SDS011;7103;54.300;10.180;2023-06-22T11:59:18;0.32;;;0.32;;
14056;SDS011;7103;54.300;10.180;2023-06-22T12:01:45;0.32;;;0.32;;
14056;SDS011;7103;54.300;10.180;2023-06-22T12:04:12;0.35;;;0.35;;
14056;SDS011;7103;54.300;10.180;2023-06-22T12:06:40;0.32;;;0.32;;
14056;SDS011;7103;54.300;10.180;2023-06-22T12:09:09;0.32;;;0.32;;
14056;SDS011;7103;54.300;10.180;2023-06-22T12:11:36;0.40;;;0.40;;
14056;SDS011;7103;54.300;10.180;2023-06-22T12:14:04;0.40;;;0.40;;
14056;SDS011;7103;54.300;10.180;2023-06-22T12:16:30;0.40;;;0.40;;
14056;SDS011;7103;54.300;10.180;2023-06-22T12:18:57;0.32;;;0.32;;
14056;SDS011;7103;54.300;10.180;2023-06-22T12:21:24;0.40;;;0.40;;
14056;SDS011;7103;54.300;10.180;2023-06-22T12:23:51;0.40;;;0.40;;
14056;SDS011;7103;54.300;10.180;2023-06-22T12:26:18;0.40;;;0.40;;
14056;SDS011;7103;54.300;10.180;2023-06-22T12:28:45;0.40;;;0.40;;
14056;SDS011;7103;54.300;10.180;2023-06-22T12:31:13;0.40;;;0.40;;
14056;SDS011;7103;54.300;10.180;2023-06-22T12:33:41;0.30;;;0.30;;
14056;SDS011;7103;54.300;10.180;2023-06-22T12:36:08;0.30;;;0.30;;
14056;SDS011;7103;54.300;10.180;2023-06-22T12:38:35;0.30;;;0.30;;
14056;SDS011;7103;54.300;10.180;2023-06-22T12:41:02;0.30;;;0.30;;
14056;SDS011;7103;54.300;10.180;2023-06-22T12:43:29;0.35;;;0.35;;
14056;SDS011;7103;54.300;10.180;2023-06-22T12:45:55;0.40;;;0.40;;
14056;SDS011;7103;54.300;10.180;2023-06-22T12:48:23;0.40;;;0.40;;
14056;SDS011;7103;54.300;10.180;2023-06-22T12:50:52;0.30;;;0.30;;
14056;SDS011;7103;54.300;10.180;2023-06-22T12:53:21;0.30;;;0.30;;
14056;SDS011;7103;54.300;10.180;2023-06-22T12:55:50;0.40;;;0.40;;
14056;SDS011;7103;54.300;10.180;2023-06-22T12:58:17;0.38;;;0.38;;
14056;SDS011;7103;54.300;10.180;2023-06-22T13:00:44;0.40;;;0.40;;
14056;SDS011;7103;54.300;10.180;2023-06-22T13:03:11;0.38;;;0.38;;
14056;SDS011;7103;54.300;10.180;2023-06-22T13:05:38;0.40;;;0.40;;
14056;SDS011;7103;54.300;10.180;2023-06-22T13:08:05;0.30;;;0.30;;
14056;SDS011;7103;54.300;10.180;2023-06-22T13:10:32;0.30;;;0.30;;
14056;SDS011;7103;54.300;10.180;2023-06-22T13:12:59;0.30;;;0.30;;
14056;SDS011;7103;54.300;10.180;2023-06-22T13:15:29;0.38;;;0.38;;
14056;SDS011;7103;54.300;10.180;2023-06-22T13:17:57;0.40;;;0.40;;
14056;SDS011;7103;54.300;10.180;2023-06-22T13:20:24;0.30;;;0.30;;
14056;SDS011;7103;54.300;10.180;2023-06-22T13:22:50;0.40;;;0.40;;
14056;SDS011;7103;54.300;10.180;2023-06-22T13:25:17;0.30;;;0.30;;
14056;SDS011;7103;54.300;10.180;2023-06-22T13:27:47;0.40;;;0.40;;
14056;SDS011;7103;54.300;10.180;2023-06-22T13:30:14;0.30;;;0.30;;
14056;SDS011;7103;54.300;10.180;2023-06-22T13:32:58;0.30;;;0.30;;
14056;SDS011;7103;54.300;10.180;2023-06-22T13:35:42;0.30;;;0.30;;
14056;SDS011;7103;54.300;10.180;2023-06-22T13:38:27;0.40;;;0.40;;
14056;SDS011;7103;54.300;10.180;2023-06-22T13:41:11;0.30;;;0.30;;
14056;SDS011;7103;54.300;10.180;2023-06-22T13:43:56;0.35;;;0.35;;
14056;SDS011;7103;54.300;10.180;2023-06-22T13:46:40;0.30;;;0.30;;
14056;SDS011;7103;54.300;10.180;2023-06-22T13:49:24;0.30;;;0.30;;
14056;SDS011;7103;54.300;10.180;2023-06-22T13:52:09;0.30;;;0.30;;
14056;SDS011;7103;54.300;10.180;2023-06-22T13:54:37;0.30;;;0.30;;
14056;SDS011;7103;54.300;10.180;2023-06-22T13:57:04;0.30;;;0.30;;
14056;SDS011;7103;54.300;10.180;2023-06-22T13:59:31;0.30;;;0.30;;
14056;SDS011;7103;54.300;10.180;2023-06-22T14:01:58;0.38;;;0.38;;
14056;SDS011;7103;54.300;10.180;2023-06-22T14:04:25;0.30;;;0.30;;
14056;SDS011;7103;54.300;10.180;2023-06-22T14:06:53;0.30;;;0.30;;
14056;SDS011;7103;54.300;10.180;2023-06-22T14:09:22;0.30;;;0.30;;
14056;SDS011;7103;54.300;10.180;2023-06-22T14:11:49;0.30;;;0.30;;
14056;SDS011;7103;54.300;10.180;2023-06-22T14:14:16;0.30;;;0.30;;
14056;SDS011;7103;54.300;10.180;2023-06-22T14:16:43;0.30;;;0.30;;
14056;SDS011;7103;54.300;10.180;2023-06-22T14:19:10;0.30;;;0.30;;
14056;SDS011;7103;54.300;10.180;2023-06-22T14:21:37;0.30;;;0.30;;
14056;SDS011;7103;54.300;10.180;2023-06-22T14:24:04;0.30;;;0.30;;
14056;SDS011;7103;54.300;10.180;2023-06-22T14:26:31;0.40;;;0.40;;
14056;SDS011;7103;54.300;10.180;2023-06-22T14:28:58;0.30;;;0.30;;
14056;SDS011;7103;54.300;10.180;2023-06-22T14:31:25;0.37;;;0.37;;
14056;SDS011;7103;54.300;10.180;2023-06-22T14:33:52;0.30;;;0.30;;
14056;SDS011;7103;54.300;10.180;2023-06-22T14:36:19;0.30;;;0.30;;
14056;SDS011;7103;54.300;10.180;2023-06-22T14:38:46;0.30;;;0.30;;
14056;SDS011;7103;54.300;10.180;2023-06-22T14:41:13;0.37;;;0.37;;
14056;SDS011;7103;54.300;10.180;2023-06-22T14:43:44;0.30;;;0.30;;
14056;SDS011;7103;54.300;10.180;2023-06-22T14:46:17;0.30;;;0.30;;
14056;SDS011;7103;54.300;10.180;2023-06-22T14:48:44;0.30;;;0.30;;
14056;SDS011;7103;54.300;10.180;2023-06-22T14:51:12;0.30;;;0.30;;
14056;SDS011;7103;54.300;10.180;2023-06-22T14:53:43;0.30;;;0.30;;
14056;SDS011;7103;54.300;10.180;2023-06-22T14:56:11;0.37;;;0.37;;
14056;SDS011;7103;54.300;10.180;2023-06-22T14:58:41;0.30;;;0.30;;
14056;SDS011;7103;54.300;10.180;2023-06-22T15:01:12;0.40;;;0.40;;
14056;SDS011;7103;54.300;10.180;2023-06-22T15:03:40;0.30;;;0.30;;
14056;SDS011;7103;54.300;10.180;2023-06-22T15:06:07;0.30;;;0.30;;